sensor_id;sensor_type;location;lat;lon;timestamp;temperature;humidity
2100;DHT22;1055;48.854;9.302;2023-04-24T00:01:20;11.50;99.90
2100;DHT22;1055;48.854;9.302;2023-04-24T00:03:46;11.60;99.90
2100;DHT22;1055;48.854;9.302;2023-04-24T00:06:12;11.60;99.90
2100;DHT22;1055;48.854;9.302;2023-04-24T00:08:38;11.80;99.90
2100;DHT22;1055;48.854;9.302;2023-04-24T00:11:07;11.70;99.90
2100;DHT22;1055;48.854;9.302;2023-04-24T00:13:34;11.70;99.90
2100;DHT22;1055;48.854;9.302;2023-04-24T00:16:00;11.70;99.90
2100;DHT22;1055;48.854;9.302;2023-04-24T00:18:27;11.70;99.90
2100;DHT22;1055;48.854;9.302;2023-04-24T00:20:53;11.70;99.90
2100;DHT22;1055;48.854;9.302;2023-04-24T00:23:19;11.70;99.90
2100;DHT22;1055;48.854;9.302;2023-04-24T00:25:45;11.70;99.90
2100;DHT22;1055;48.854;9.302;2023-04-24T00:28:11;11.70;99.90
2100;DHT22;1055;48.854;9.302;2023-04-24T00:30:37;11.70;99.90
2100;DHT22;1055;48.854;9.302;2023-04-24T00:33:10;11.70;99.90
2100;DHT22;1055;48.854;9.302;2023-04-24T00:35:43;11.70;99.90
2100;DHT22;1055;48.854;9.302;2023-04-24T00:38:09;11.70;99.90
2100;DHT22;1055;48.854;9.302;2023-04-24T00:40:35;11.80;99.90
2100;DHT22;1055;48.854;9.302;2023-04-24T00:43:01;11.70;99.90
2100;DHT22;1055;48.854;9.302;2023-04-24T00:45:33;11.70;99.90
2100;DHT22;1055;48.854;9.302;2023-04-24T00:48:00;11.70;99.90
2100;DHT22;1055;48.854;9.302;2023-04-24T00:50:32;11.70;99.90
2100;DHT22;1055;48.854;9.302;2023-04-24T00:53:01;11.80;99.90
2100;DHT22;1055;48.854;9.302;2023-04-24T00:55:30;11.80;99.90
2100;DHT22;1055;48.854;9.302;2023-04-24T00:57:57;11.70;99.90
2100;DHT22;1055;48.854;9.302;2023-04-24T01:00:24;11.70;99.90
2100;DHT22;1055;48.854;9.302;2023-04-24T01:02:53;11.70;99.90
2100;DHT22;1055;48.854;9.302;2023-04-24T01:05:22;11.80;99.90
2100;DHT22;1055;48.854;9.302;2023-04-24T01:07:48;11.70;99.90
2100;DHT22;1055;48.854;9.302;2023-04-24T01:10:15;11.80;99.90
2100;DHT22;1055;48.854;9.302;2023-04-24T01:12:46;11.80;99.90
2100;DHT22;1055;48.854;9.302;2023-04-24T01:15:12;11.80;99.90
2100;DHT22;1055;48.854;9.302;2023-04-24T01:17:43;11.80;99.90
2100;DHT22;1055;48.854;9.302;2023-04-24T01:20:09;11.80;99.90
2100;DHT22;1055;48.854;9.302;2023-04-24T01:22:36;11.80;99.90
2100;DHT22;1055;48.854;9.302;2023-04-24T01:25:03;11.90;99.90
2100;DHT22;1055;48.854;9.302;2023-04-24T01:27:34;11.90;99.90
2100;DHT22;1055;48.854;9.302;2023-04-24T01:30:00;11.90;99.90
2100;DHT22;1055;48.854;9.302;2023-04-24T01:32:26;11.80;99.90
2100;DHT22;1055;48.854;9.302;2023-04-24T01:34:53;11.80;99.90
2100;DHT22;1055;48.854;9.302;2023-04-24T01:37:20;11.90;99.90
2100;DHT22;1055;48.854;9.302;2023-04-24T01:39:46;11.90;99.90
2100;DHT22;1055;48.854;9.302;2023-04-24T01:42:12;11.90;99.90
2100;DHT22;1055;48.854;9.302;2023-04-24T01:44:38;11.90;99.90
2100;DHT22;1055;48.854;9.302;2023-04-24T01:47:04;11.90;99.90
2100;DHT22;1055;48.854;9.302;2023-04-24T01:49:31;11.90;99.90
2100;DHT22;1055;48.854;9.302;2023-04-24T01:51:57;11.80;99.90
2100;DHT22;1055;48.854;9.302;2023-04-24T01:54:22;11.90;99.90
2100;DHT22;1055;48.854;9.302;2023-04-24T01:56:48;11.80;99.90
2100;DHT22;1055;48.854;9.302;2023-04-24T01:59:15;11.80;99.90
2100;DHT22;1055;48.854;9.302;2023-04-24T02:01:42;11.80;99.90
2100;DHT22;1055;48.854;9.302;2023-04-24T02:04:07;11.80;99.90
2100;DHT22;1055;48.854;9.302;2023-04-24T02:06:34;11.80;99.90
2100;DHT22;1055;48.854;9.302;2023-04-24T02:09:00;11.80;99.90
2100;DHT22;1055;48.854;9.302;2023-04-24T02:11:25;11.80;99.90
2100;DHT22;1055;48.854;9.302;2023-04-24T02:13:52;11.70;99.90
2100;DHT22;1055;48.854;9.302;2023-04-24T02:16:18;11.70;99.90
2100;DHT22;1055;48.854;9.302;2023-04-24T02:18:43;11.60;99.90
2100;DHT22;1055;48.854;9.302;2023-04-24T02:21:09;11.60;99.90
2100;DHT22;1055;48.854;9.302;2023-04-24T02:23:35;11.60;99.90
2100;DHT22;1055;48.854;9.302;2023-04-24T02:26:00;11.60;99.90
2100;DHT22;1055;48.854;9.302;2023-04-24T02:28:26;11.60;99.90
2100;DHT22;1055;48.854;9.302;2023-04-24T02:30:52;11.50;99.90
2100;DHT22;1055;48.854;9.302;2023-04-24T02:33:17;11.50;99.90
2100;DHT22;1055;48.854;9.302;2023-04-24T02:35:43;11.60;99.90
2100;DHT22;1055;48.854;9.302;2023-04-24T02:38:09;11.60;99.90
2100;DHT22;1055;48.854;9.302;2023-04-24T02:40:34;11.50;99.90
2100;DHT22;1055;48.854;9.302;2023-04-24T02:43:00;11.60;99.90
2100;DHT22;1055;48.854;9.302;2023-04-24T02:45:25;11.60;99.90
2100;DHT22;1055;48.854;9.302;2023-04-24T02:47:51;11.60;99.90
2100;DHT22;1055;48.854;9.302;2023-04-24T02:50:17;11.70;99.90
2100;DHT22;1055;48.854;9.302;2023-04-24T02:52:42;11.60;99.90
2100;DHT22;1055;48.854;9.302;2023-04-24T02:55:08;11.60;99.90
2100;DHT22;1055;48.854;9.302;2023-04-24T02:57:34;11.60;99.90
2100;DHT22;1055;48.854;9.302;2023-04-24T02:59:59;11.60;99.90
2100;DHT22;1055;48.854;9.302;2023-04-24T03:02:25;11.40;99.90
2100;DHT22;1055;48.854;9.302;2023-04-24T03:04:51;11.40;99.90
2100;DHT22;1055;48.854;9.302;2023-04-24T03:07:16;11.40;99.90
2100;DHT22;1055;48.854;9.302;2023-04-24T03:09:42;11.20;99.90
2100;DHT22;1055;48.854;9.302;2023-04-24T03:12:07;11.20;99.90
2100;DHT22;1055;48.854;9.302;2023-04-24T03:14:33;11.20;99.90
2100;DHT22;1055;48.854;9.302;2023-04-24T03:16:59;11.00;99.90
2100;DHT22;1055;48.854;9.302;2023-04-24T03:19:25;10.90;99.90
2100;DHT22;1055;48.854;9.302;2023-04-24T03:21:50;11.10;99.90
2100;DHT22;1055;48.854;9.302;2023-04-24T03:24:16;11.10;99.90
2100;DHT22;1055;48.854;9.302;2023-04-24T03:26:41;10.90;99.90
2100;DHT22;1055;48.854;9.302;2023-04-24T03:29:07;10.90;99.90
2100;DHT22;1055;48.854;9.302;2023-04-24T03:31:33;10.90;99.90
2100;DHT22;1055;48.854;9.302;2023-04-24T03:33:58;11.00;99.90
2100;DHT22;1055;48.854;9.302;2023-04-24T03:36:24;11.00;99.90
2100;DHT22;1055;48.854;9.302;2023-04-24T03:38:51;10.90;99.90
2100;DHT22;1055;48.854;9.302;2023-04-24T03:41:16;10.90;99.90
2100;DHT22;1055;48.854;9.302;2023-04-24T03:43:42;10.90;99.90
2100;DHT22;1055;48.854;9.302;2023-04-24T03:46:08;10.80;99.90
2100;DHT22;1055;48.854;9.302;2023-04-24T03:48:35;10.80;99.90
2100;DHT22;1055;48.854;9.302;2023-04-24T03:51:00;10.80;99.90
2100;DHT22;1055;48.854;9.302;2023-04-24T03:53:26;11.00;99.90
2100;DHT22;1055;48.854;9.302;2023-04-24T03:55:53;10.80;99.90
2100;DHT22;1055;48.854;9.302;2023-04-24T03:58:18;10.60;99.90
2100;DHT22;1055;48.854;9.302;2023-04-24T04:00:44;10.70;99.90
2100;DHT22;1055;48.854;9.302;2023-04-24T04:03:10;10.70;99.90
2100;DHT22;1055;48.854;9.302;2023-04-24T04:05:35;10.70;99.90
2100;DHT22;1055;48.854;9.302;2023-04-24T04:08:01;10.60;99.90
2100;DHT22;1055;48.854;9.302;2023-04-24T04:10:27;10.70;99.90
2100;DHT22;1055;48.854;9.302;2023-04-24T04:12:53;10.60;99.90
2100;DHT22;1055;48.854;9.302;2023-04-24T04:15:18;10.80;99.90
2100;DHT22;1055;48.854;9.302;2023-04-24T04:17:44;10.70;99.90
2100;DHT22;1055;48.854;9.302;2023-04-24T04:20:11;10.70;99.90
2100;DHT22;1055;48.854;9.302;2023-04-24T04:22:37;10.90;99.90
2100;DHT22;1055;48.854;9.302;2023-04-24T04:25:03;10.90;99.90
2100;DHT22;1055;48.854;9.302;2023-04-24T04:27:30;10.90;99.90
2100;DHT22;1055;48.854;9.302;2023-04-24T04:29:58;10.90;99.90
2100;DHT22;1055;48.854;9.302;2023-04-24T04:32:26;10.90;99.90
2100;DHT22;1055;48.854;9.302;2023-04-24T04:34:52;10.80;99.90
2100;DHT22;1055;48.854;9.302;2023-04-24T04:37:19;10.80;99.90
2100;DHT22;1055;48.854;9.302;2023-04-24T04:39:45;10.70;99.90
2100;DHT22;1055;48.854;9.302;2023-04-24T04:42:10;10.70;99.90
2100;DHT22;1055;48.854;9.302;2023-04-24T04:44:36;10.80;99.90
2100;DHT22;1055;48.854;9.302;2023-04-24T04:47:02;10.70;99.90
2100;DHT22;1055;48.854;9.302;2023-04-24T04:49:32;10.80;99.90
2100;DHT22;1055;48.854;9.302;2023-04-24T04:51:58;10.70;99.90
2100;DHT22;1055;48.854;9.302;2023-04-24T04:54:28;10.70;99.90
2100;DHT22;1055;48.854;9.302;2023-04-24T04:57:01;10.80;99.90
2100;DHT22;1055;48.854;9.302;2023-04-24T04:59:33;10.70;99.90
2100;DHT22;1055;48.854;9.302;2023-04-24T05:02:01;10.90;99.90
2100;DHT22;1055;48.854;9.302;2023-04-24T05:04:26;11.00;99.90
2100;DHT22;1055;48.854;9.302;2023-04-24T05:06:52;10.80;99.90
2100;DHT22;1055;48.854;9.302;2023-04-24T05:09:18;10.70;99.90
2100;DHT22;1055;48.854;9.302;2023-04-24T05:11:44;10.60;99.90
2100;DHT22;1055;48.854;9.302;2023-04-24T05:14:10;10.50;99.90
2100;DHT22;1055;48.854;9.302;2023-04-24T05:16:38;10.50;99.90
2100;DHT22;1055;48.854;9.302;2023-04-24T05:19:04;10.50;99.90
2100;DHT22;1055;48.854;9.302;2023-04-24T05:21:30;10.50;99.90
2100;DHT22;1055;48.854;9.302;2023-04-24T05:23:57;10.60;99.90
2100;DHT22;1055;48.854;9.302;2023-04-24T05:26:22;10.70;99.90
2100;DHT22;1055;48.854;9.302;2023-04-24T05:28:48;10.70;99.90
2100;DHT22;1055;48.854;9.302;2023-04-24T05:31:15;10.60;99.90
2100;DHT22;1055;48.854;9.302;2023-04-24T05:33:40;10.80;99.90
2100;DHT22;1055;48.854;9.302;2023-04-24T05:36:06;10.60;99.90
2100;DHT22;1055;48.854;9.302;2023-04-24T05:38:33;10.60;99.90
2100;DHT22;1055;48.854;9.302;2023-04-24T05:41:01;10.70;99.90
2100;DHT22;1055;48.854;9.302;2023-04-24T05:43:33;10.60;99.90
2100;DHT22;1055;48.854;9.302;2023-04-24T05:46:02;10.60;99.90
2100;DHT22;1055;48.854;9.302;2023-04-24T05:48:29;10.60;99.90
2100;DHT22;1055;48.854;9.302;2023-04-24T05:51:01;10.60;99.90
2100;DHT22;1055;48.854;9.302;2023-04-24T05:53:26;10.60;99.90
2100;DHT22;1055;48.854;9.302;2023-04-24T05:55:52;10.40;99.90
2100;DHT22;1055;48.854;9.302;2023-04-24T05:58:18;10.40;99.90
2100;DHT22;1055;48.854;9.302;2023-04-24T06:00:43;10.40;99.90
2100;DHT22;1055;48.854;9.302;2023-04-24T06:03:11;10.40;99.90
2100;DHT22;1055;48.854;9.302;2023-04-24T06:05:37;10.40;99.90
2100;DHT22;1055;48.854;9.302;2023-04-24T06:08:02;10.40;99.90
2100;DHT22;1055;48.854;9.302;2023-04-24T06:10:28;10.50;99.90
2100;DHT22;1055;48.854;9.302;2023-04-24T06:12:54;10.70;99.90
2100;DHT22;1055;48.854;9.302;2023-04-24T06:15:21;10.60;99.90
2100;DHT22;1055;48.854;9.302;2023-04-24T06:17:47;10.70;99.90
2100;DHT22;1055;48.854;9.302;2023-04-24T06:20:13;10.60;99.90
2100;DHT22;1055;48.854;9.302;2023-04-24T06:22:38;10.70;99.90
2100;DHT22;1055;48.854;9.302;2023-04-24T06:25:05;10.70;99.90
2100;DHT22;1055;48.854;9.302;2023-04-24T06:27:31;10.80;99.90
2100;DHT22;1055;48.854;9.302;2023-04-24T06:29:57;10.80;99.90
2100;DHT22;1055;48.854;9.302;2023-04-24T06:32:23;10.90;99.90
2100;DHT22;1055;48.854;9.302;2023-04-24T06:34:50;11.00;99.90
2100;DHT22;1055;48.854;9.302;2023-04-24T06:37:16;11.10;99.90
2100;DHT22;1055;48.854;9.302;2023-04-24T06:39:42;11.10;99.90
2100;DHT22;1055;48.854;9.302;2023-04-24T06:42:07;11.10;99.90
2100;DHT22;1055;48.854;9.302;2023-04-24T06:44:35;11.00;99.90
2100;DHT22;1055;48.854;9.302;2023-04-24T06:47:09;11.00;99.90
2100;DHT22;1055;48.854;9.302;2023-04-24T06:49:39;11.00;99.90
2100;DHT22;1055;48.854;9.302;2023-04-24T06:52:05;11.10;99.90
2100;DHT22;1055;48.854;9.302;2023-04-24T06:54:32;11.00;99.90
2100;DHT22;1055;48.854;9.302;2023-04-24T06:56:58;11.10;99.90
2100;DHT22;1055;48.854;9.302;2023-04-24T06:59:24;11.10;99.90
2100;DHT22;1055;48.854;9.302;2023-04-24T07:01:50;11.00;99.90
2100;DHT22;1055;48.854;9.302;2023-04-24T07:04:16;11.10;99.90
2100;DHT22;1055;48.854;9.302;2023-04-24T07:06:43;11.00;99.90
2100;DHT22;1055;48.854;9.302;2023-04-24T07:09:08;11.00;99.90
2100;DHT22;1055;48.854;9.302;2023-04-24T07:11:36;11.10;99.90
2100;DHT22;1055;48.854;9.302;2023-04-24T07:14:03;11.20;99.90
2100;DHT22;1055;48.854;9.302;2023-04-24T07:16:28;11.40;99.90
2100;DHT22;1055;48.854;9.302;2023-04-24T07:18:55;11.50;99.90
2100;DHT22;1055;48.854;9.302;2023-04-24T07:21:21;11.50;99.90
2100;DHT22;1055;48.854;9.302;2023-04-24T07:23:46;11.60;99.90
2100;DHT22;1055;48.854;9.302;2023-04-24T07:26:12;11.60;99.90
2100;DHT22;1055;48.854;9.302;2023-04-24T07:28:40;11.70;99.90
2100;DHT22;1055;48.854;9.302;2023-04-24T07:31:06;11.50;99.90
2100;DHT22;1055;48.854;9.302;2023-04-24T07:33:32;11.40;99.90
2100;DHT22;1055;48.854;9.302;2023-04-24T07:35:58;11.40;99.90
2100;DHT22;1055;48.854;9.302;2023-04-24T07:38:24;11.40;99.90
2100;DHT22;1055;48.854;9.302;2023-04-24T07:40:51;11.40;99.90
2100;DHT22;1055;48.854;9.302;2023-04-24T07:43:17;11.50;99.90
2100;DHT22;1055;48.854;9.302;2023-04-24T07:45:43;11.60;99.90
2100;DHT22;1055;48.854;9.302;2023-04-24T07:48:09;11.70;99.90
2100;DHT22;1055;48.854;9.302;2023-04-24T07:50:35;11.80;99.90
2100;DHT22;1055;48.854;9.302;2023-04-24T07:53:02;11.90;99.90
2100;DHT22;1055;48.854;9.302;2023-04-24T07:55:28;12.00;99.90
2100;DHT22;1055;48.854;9.302;2023-04-24T07:57:53;11.70;99.90
2100;DHT22;1055;48.854;9.302;2023-04-24T08:00:20;11.90;99.90
2100;DHT22;1055;48.854;9.302;2023-04-24T08:02:46;11.90;99.90
2100;DHT22;1055;48.854;9.302;2023-04-24T08:05:11;11.80;99.90
2100;DHT22;1055;48.854;9.302;2023-04-24T08:07:37;11.90;99.90
2100;DHT22;1055;48.854;9.302;2023-04-24T08:10:03;11.90;99.90
2100;DHT22;1055;48.854;9.302;2023-04-24T08:12:30;12.10;99.90
2100;DHT22;1055;48.854;9.302;2023-04-24T08:14:55;12.20;99.90
2100;DHT22;1055;48.854;9.302;2023-04-24T08:17:21;12.00;99.90
2100;DHT22;1055;48.854;9.302;2023-04-24T08:19:47;11.90;99.90
2100;DHT22;1055;48.854;9.302;2023-04-24T08:22:16;11.90;99.90
2100;DHT22;1055;48.854;9.302;2023-04-24T08:24:42;12.10;99.90
2100;DHT22;1055;48.854;9.302;2023-04-24T08:27:09;11.90;99.90
2100;DHT22;1055;48.854;9.302;2023-04-24T08:29:36;12.00;99.90
2100;DHT22;1055;48.854;9.302;2023-04-24T08:32:01;12.10;99.90
2100;DHT22;1055;48.854;9.302;2023-04-24T08:34:27;11.90;99.90
2100;DHT22;1055;48.854;9.302;2023-04-24T08:36:53;11.80;99.90
2100;DHT22;1055;48.854;9.302;2023-04-24T08:39:18;11.70;99.90
2100;DHT22;1055;48.854;9.302;2023-04-24T08:41:44;11.60;99.90
2100;DHT22;1055;48.854;9.302;2023-04-24T08:44:11;11.60;99.90
2100;DHT22;1055;48.854;9.302;2023-04-24T08:46:39;11.70;99.90
2100;DHT22;1055;48.854;9.302;2023-04-24T08:49:05;11.70;99.90
2100;DHT22;1055;48.854;9.302;2023-04-24T08:51:31;11.80;99.90
2100;DHT22;1055;48.854;9.302;2023-04-24T08:53:57;11.60;99.90
2100;DHT22;1055;48.854;9.302;2023-04-24T08:56:23;11.70;99.90
2100;DHT22;1055;48.854;9.302;2023-04-24T08:58:51;11.60;99.90
2100;DHT22;1055;48.854;9.302;2023-04-24T09:01:19;11.70;99.90
2100;DHT22;1055;48.854;9.302;2023-04-24T09:03:47;11.60;99.90
2100;DHT22;1055;48.854;9.302;2023-04-24T09:06:14;11.60;99.90
2100;DHT22;1055;48.854;9.302;2023-04-24T09:08:42;11.60;99.90
2100;DHT22;1055;48.854;9.302;2023-04-24T09:11:10;11.60;99.90
2100;DHT22;1055;48.854;9.302;2023-04-24T09:13:36;11.60;99.90
2100;DHT22;1055;48.854;9.302;2023-04-24T09:16:02;11.50;99.90
2100;DHT22;1055;48.854;9.302;2023-04-24T09:18:28;11.60;99.90
2100;DHT22;1055;48.854;9.302;2023-04-24T09:21:03;11.70;99.90
2100;DHT22;1055;48.854;9.302;2023-04-24T09:23:30;11.60;99.90
2100;DHT22;1055;48.854;9.302;2023-04-24T09:25:58;11.50;99.90
2100;DHT22;1055;48.854;9.302;2023-04-24T09:28:30;11.50;99.90
2100;DHT22;1055;48.854;9.302;2023-04-24T09:31:11;11.50;99.90
2100;DHT22;1055;48.854;9.302;2023-04-24T09:33:37;11.50;99.90
2100;DHT22;1055;48.854;9.302;2023-04-24T09:36:03;11.20;99.90
2100;DHT22;1055;48.854;9.302;2023-04-24T09:38:36;11.10;99.90
2100;DHT22;1055;48.854;9.302;2023-04-24T09:41:05;10.70;99.90
2100;DHT22;1055;48.854;9.302;2023-04-24T09:58:47;11.00;99.90
2100;DHT22;1055;48.854;9.302;2023-04-24T10:01:13;11.40;99.90
2100;DHT22;1055;48.854;9.302;2023-04-24T10:03:42;11.60;99.90
2100;DHT22;1055;48.854;9.302;2023-04-24T10:06:12;11.80;99.90
2100;DHT22;1055;48.854;9.302;2023-04-24T10:08:38;11.70;99.90
2100;DHT22;1055;48.854;9.302;2023-04-24T10:11:04;11.60;99.90
2100;DHT22;1055;48.854;9.302;2023-04-24T10:13:30;11.70;99.90
2100;DHT22;1055;48.854;9.302;2023-04-24T10:15:56;11.80;99.90
2100;DHT22;1055;48.854;9.302;2023-04-24T10:18:24;12.00;99.90
2100;DHT22;1055;48.854;9.302;2023-04-24T10:20:50;11.90;99.90
2100;DHT22;1055;48.854;9.302;2023-04-24T10:23:17;12.10;99.90
2100;DHT22;1055;48.854;9.302;2023-04-24T10:25:44;12.10;99.90
2100;DHT22;1055;48.854;9.302;2023-04-24T10:28:10;12.20;99.90
2100;DHT22;1055;48.854;9.302;2023-04-24T10:30:37;12.60;99.90
2100;DHT22;1055;48.854;9.302;2023-04-24T10:33:05;12.70;99.90
2100;DHT22;1055;48.854;9.302;2023-04-24T10:35:34;12.50;99.90
2100;DHT22;1055;48.854;9.302;2023-04-24T10:38:12;12.10;99.90
2100;DHT22;1055;48.854;9.302;2023-04-24T10:40:38;11.90;99.90
2100;DHT22;1055;48.854;9.302;2023-04-24T10:43:06;11.90;99.90
2100;DHT22;1055;48.854;9.302;2023-04-24T10:45:33;11.50;99.90
2100;DHT22;1055;48.854;9.302;2023-04-24T10:48:07;11.70;99.90
2100;DHT22;1055;48.854;9.302;2023-04-24T10:50:53;11.70;99.90
2100;DHT22;1055;48.854;9.302;2023-04-24T10:53:23;11.60;99.90
2100;DHT22;1055;48.854;9.302;2023-04-24T10:55:51;11.60;99.90
2100;DHT22;1055;48.854;9.302;2023-04-24T10:58:24;11.50;99.90
2100;DHT22;1055;48.854;9.302;2023-04-24T11:00:58;11.40;99.90
2100;DHT22;1055;48.854;9.302;2023-04-24T11:03:28;11.40;99.90
2100;DHT22;1055;48.854;9.302;2023-04-24T11:05:58;11.50;99.90
2100;DHT22;1055;48.854;9.302;2023-04-24T11:08:30;11.60;99.90
2100;DHT22;1055;48.854;9.302;2023-04-24T11:16:15;11.80;99.90
2100;DHT22;1055;48.854;9.302;2023-04-24T11:18:45;11.90;99.90
2100;DHT22;1055;48.854;9.302;2023-04-24T11:21:18;12.00;99.90
2100;DHT22;1055;48.854;9.302;2023-04-24T11:23:45;11.90;99.90
2100;DHT22;1055;48.854;9.302;2023-04-24T11:26:13;12.00;99.90
2100;DHT22;1055;48.854;9.302;2023-04-24T11:28:47;12.00;99.90
2100;DHT22;1055;48.854;9.302;2023-04-24T11:31:34;12.10;99.90
2100;DHT22;1055;48.854;9.302;2023-04-24T11:34:13;12.10;99.90
2100;DHT22;1055;48.854;9.302;2023-04-24T11:36:40;12.10;99.90
2100;DHT22;1055;48.854;9.302;2023-04-24T11:39:08;12.10;99.90
2100;DHT22;1055;48.854;9.302;2023-04-24T11:41:34;12.20;99.90
2100;DHT22;1055;48.854;9.302;2023-04-24T11:44:01;12.20;99.90
2100;DHT22;1055;48.854;9.302;2023-04-24T11:46:31;12.20;99.90
2100;DHT22;1055;48.854;9.302;2023-04-24T11:48:58;12.20;99.90
2100;DHT22;1055;48.854;9.302;2023-04-24T11:51:25;12.30;99.90
2100;DHT22;1055;48.854;9.302;2023-04-24T11:53:52;12.30;99.90
2100;DHT22;1055;48.854;9.302;2023-04-24T11:56:21;12.20;99.90
2100;DHT22;1055;48.854;9.302;2023-04-24T11:58:47;12.00;99.90
2100;DHT22;1055;48.854;9.302;2023-04-24T12:01:13;12.00;99.90
2100;DHT22;1055;48.854;9.302;2023-04-24T12:03:39;11.80;99.90
2100;DHT22;1055;48.854;9.302;2023-04-24T12:06:10;11.70;99.90
2100;DHT22;1055;48.854;9.302;2023-04-24T12:08:38;11.70;99.90
2100;DHT22;1055;48.854;9.302;2023-04-24T12:11:06;11.80;99.90
2100;DHT22;1055;48.854;9.302;2023-04-24T12:13:33;12.00;99.90
2100;DHT22;1055;48.854;9.302;2023-04-24T12:16:03;12.10;99.90
2100;DHT22;1055;48.854;9.302;2023-04-24T12:18:30;12.20;99.90
2100;DHT22;1055;48.854;9.302;2023-04-24T12:21:18;12.30;99.90
2100;DHT22;1055;48.854;9.302;2023-04-24T12:23:44;12.30;99.90
2100;DHT22;1055;48.854;9.302;2023-04-24T12:26:18;12.20;99.90
2100;DHT22;1055;48.854;9.302;2023-04-24T12:28:47;12.20;99.90
2100;DHT22;1055;48.854;9.302;2023-04-24T12:31:17;12.00;99.90
2100;DHT22;1055;48.854;9.302;2023-04-24T12:33:43;12.00;99.90
2100;DHT22;1055;48.854;9.302;2023-04-24T12:36:12;11.80;99.90
2100;DHT22;1055;48.854;9.302;2023-04-24T12:38:39;11.80;99.90
2100;DHT22;1055;48.854;9.302;2023-04-24T12:41:12;11.90;99.90
2100;DHT22;1055;48.854;9.302;2023-04-24T12:43:50;12.00;99.90
2100;DHT22;1055;48.854;9.302;2023-04-24T12:46:16;11.90;99.90
2100;DHT22;1055;48.854;9.302;2023-04-24T12:48:42;12.00;99.90
2100;DHT22;1055;48.854;9.302;2023-04-24T12:51:08;12.00;99.90
2100;DHT22;1055;48.854;9.302;2023-04-24T12:53:33;11.90;99.90
2100;DHT22;1055;48.854;9.302;2023-04-24T12:55:59;11.80;99.90
2100;DHT22;1055;48.854;9.302;2023-04-24T12:58:24;11.80;99.90
2100;DHT22;1055;48.854;9.302;2023-04-24T13:00:50;11.70;99.90
2100;DHT22;1055;48.854;9.302;2023-04-24T13:03:16;11.80;99.90
2100;DHT22;1055;48.854;9.302;2023-04-24T13:05:43;11.70;99.90
2100;DHT22;1055;48.854;9.302;2023-04-24T13:08:09;11.60;99.90
2100;DHT22;1055;48.854;9.302;2023-04-24T13:10:35;11.70;99.90
2100;DHT22;1055;48.854;9.302;2023-04-24T13:13:01;11.80;99.90
2100;DHT22;1055;48.854;9.302;2023-04-24T13:15:26;11.60;99.90
2100;DHT22;1055;48.854;9.302;2023-04-24T13:17:54;11.20;99.90
2100;DHT22;1055;48.854;9.302;2023-04-24T13:20:19;11.40;99.90
2100;DHT22;1055;48.854;9.302;2023-04-24T13:22:45;11.80;99.90
2100;DHT22;1055;48.854;9.302;2023-04-24T13:25:11;12.00;99.90
2100;DHT22;1055;48.854;9.302;2023-04-24T13:27:39;12.40;99.90
2100;DHT22;1055;48.854;9.302;2023-04-24T13:30:06;12.70;99.90
2100;DHT22;1055;48.854;9.302;2023-04-24T13:32:32;12.20;99.90
2100;DHT22;1055;48.854;9.302;2023-04-24T13:34:58;12.30;99.90
2100;DHT22;1055;48.854;9.302;2023-04-24T13:37:24;12.00;99.90
2100;DHT22;1055;48.854;9.302;2023-04-24T13:39:50;11.90;99.90
2100;DHT22;1055;48.854;9.302;2023-04-24T13:42:16;12.00;99.90
2100;DHT22;1055;48.854;9.302;2023-04-24T13:44:42;12.10;99.90
2100;DHT22;1055;48.854;9.302;2023-04-24T13:47:08;12.10;99.90
2100;DHT22;1055;48.854;9.302;2023-04-24T13:49:34;12.10;99.90
2100;DHT22;1055;48.854;9.302;2023-04-24T13:52:01;12.00;99.90
2100;DHT22;1055;48.854;9.302;2023-04-24T13:54:26;12.00;99.90
2100;DHT22;1055;48.854;9.302;2023-04-24T13:56:52;11.90;99.90
2100;DHT22;1055;48.854;9.302;2023-04-24T13:59:19;11.90;99.90
2100;DHT22;1055;48.854;9.302;2023-04-24T14:01:46;11.80;99.90
2100;DHT22;1055;48.854;9.302;2023-04-24T14:04:11;11.90;99.90
2100;DHT22;1055;48.854;9.302;2023-04-24T14:06:37;12.30;99.90
2100;DHT22;1055;48.854;9.302;2023-04-24T14:09:03;12.50;99.90
2100;DHT22;1055;48.854;9.302;2023-04-24T14:11:28;12.40;99.90
2100;DHT22;1055;48.854;9.302;2023-04-24T14:13:57;12.20;99.90
2100;DHT22;1055;48.854;9.302;2023-04-24T14:16:23;12.20;99.90
2100;DHT22;1055;48.854;9.302;2023-04-24T14:18:48;12.10;99.90
2100;DHT22;1055;48.854;9.302;2023-04-24T14:21:14;12.30;99.90
2100;DHT22;1055;48.854;9.302;2023-04-24T14:23:40;12.40;99.90
2100;DHT22;1055;48.854;9.302;2023-04-24T14:26:05;12.40;99.90
2100;DHT22;1055;48.854;9.302;2023-04-24T14:28:32;12.30;99.90
2100;DHT22;1055;48.854;9.302;2023-04-24T14:30:57;12.30;99.90
2100;DHT22;1055;48.854;9.302;2023-04-24T14:33:23;12.60;99.90
2100;DHT22;1055;48.854;9.302;2023-04-24T14:35:49;12.40;99.90
2100;DHT22;1055;48.854;9.302;2023-04-24T14:38:14;12.40;99.90
2100;DHT22;1055;48.854;9.302;2023-04-24T14:40:40;12.30;99.90
2100;DHT22;1055;48.854;9.302;2023-04-24T14:43:06;12.60;99.90
2100;DHT22;1055;48.854;9.302;2023-04-24T14:45:32;12.70;99.90
2100;DHT22;1055;48.854;9.302;2023-04-24T14:47:58;13.10;99.90
2100;DHT22;1055;48.854;9.302;2023-04-24T14:50:23;13.50;99.90
2100;DHT22;1055;48.854;9.302;2023-04-24T14:52:53;13.40;99.90
2100;DHT22;1055;48.854;9.302;2023-04-24T14:55:20;13.00;99.90
2100;DHT22;1055;48.854;9.302;2023-04-24T14:57:45;12.90;99.90
2100;DHT22;1055;48.854;9.302;2023-04-24T15:00:12;13.20;99.90
2100;DHT22;1055;48.854;9.302;2023-04-24T15:02:38;13.80;99.90
2100;DHT22;1055;48.854;9.302;2023-04-24T15:05:07;14.00;99.90
2100;DHT22;1055;48.854;9.302;2023-04-24T15:07:33;14.00;99.90
2100;DHT22;1055;48.854;9.302;2023-04-24T15:17:20;15.00;99.90
2100;DHT22;1055;48.854;9.302;2023-04-24T15:27:03;13.30;99.90
2100;DHT22;1055;48.854;9.302;2023-04-24T15:29:29;13.10;99.90
2100;DHT22;1055;48.854;9.302;2023-04-24T15:31:55;12.60;99.90
2100;DHT22;1055;48.854;9.302;2023-04-24T15:34:20;12.40;99.90
2100;DHT22;1055;48.854;9.302;2023-04-24T15:36:46;12.40;99.90
2100;DHT22;1055;48.854;9.302;2023-04-24T15:39:12;12.40;99.90
2100;DHT22;1055;48.854;9.302;2023-04-24T15:41:37;12.40;99.90
2100;DHT22;1055;48.854;9.302;2023-04-24T15:44:03;12.40;99.90
2100;DHT22;1055;48.854;9.302;2023-04-24T15:46:29;12.70;99.90
2100;DHT22;1055;48.854;9.302;2023-04-24T15:48:54;12.70;99.90
2100;DHT22;1055;48.854;9.302;2023-04-24T15:51:20;12.80;99.90
2100;DHT22;1055;48.854;9.302;2023-04-24T15:56:12;13.50;99.90
2100;DHT22;1055;48.854;9.302;2023-04-24T15:58:38;13.30;99.90
2100;DHT22;1055;48.854;9.302;2023-04-24T16:01:04;13.20;99.90
2100;DHT22;1055;48.854;9.302;2023-04-24T16:03:30;12.80;99.90
2100;DHT22;1055;48.854;9.302;2023-04-24T16:05:56;12.60;99.90
2100;DHT22;1055;48.854;9.302;2023-04-24T16:08:22;13.20;99.90
2100;DHT22;1055;48.854;9.302;2023-04-24T16:10:47;13.20;99.90
2100;DHT22;1055;48.854;9.302;2023-04-24T16:18:09;14.00;99.90
2100;DHT22;1055;48.854;9.302;2023-04-24T16:25:27;14.80;99.90
2100;DHT22;1055;48.854;9.302;2023-04-24T16:27:52;14.80;99.90
2100;DHT22;1055;48.854;9.302;2023-04-24T16:49:54;14.30;99.90
2100;DHT22;1055;48.854;9.302;2023-04-24T17:04:30;12.30;99.90
2100;DHT22;1055;48.854;9.302;2023-04-24T17:06:56;13.60;99.90
2100;DHT22;1055;48.854;9.302;2023-04-24T17:09:22;13.10;99.90
2100;DHT22;1055;48.854;9.302;2023-04-24T17:11:47;12.90;99.90
2100;DHT22;1055;48.854;9.302;2023-04-24T17:14:13;12.90;99.90
2100;DHT22;1055;48.854;9.302;2023-04-24T17:16:39;12.70;99.90
2100;DHT22;1055;48.854;9.302;2023-04-24T17:19:05;12.80;99.90